Etusivu
METAR-TAF:

METAR-TAF

Lentoasemat :

Jällivaara, Ruotsi

Jällivaaran lentoasema

Leveyspiiri: 67-09N, Pituuspiiri: 020-39E, korkeus merenpinnasta: 359 m

Tämänhetkinen sää

Tämä raportti tehtiin 38 minuuttia sitten, kello 14.20 UTC
Tuuli 5 kn luoteesta
Lämpötila -8°C
Kosteus 92%
Ilmanpaine 978 hPa
Näkyvyys 10 km tai enemmän
Hajonneita pilviä 900 ft:n korkeudessa

METAR: ESNG 131420Z 32005KT 9999 BKN009 M08/M09 Q0978

Aika: 15:58 (14:58 UTC)

Sääennuste

Tämä raportti tehtiin 28 minuuttia sitten, kello 14.30 UTC
Ennuste voimassa 13. päivästä klo 15 UTC - 13. päivään klo 22 UTC
Tuuli 7 kn lännestä/luoteesta
Näkyvyys 10 km tai enemmän
Hajanaisia pilviä 4000 ft:n korkeudessa
Todennäköisyys 40%
13. päivästä klo 15 UTC - 13. päivään klo 16 UTC
Näkyvyys: 4000 m
900 ft:n korkeudessa
heikkoa lumisadetta

TAF: ESNG 131430Z 1315/1322 29007KT 9999 SCT040 PROB40 1315/1316 4000 -SN VV009

Säähavainnot ja -ennusteet yli 4000 lentoasemalta (METAR- ja TAF-raportit).

Käytössä olevat sääasemat on merkitty karttaan keltaisilla ja punaisilla pisteillä.

Aseta hiiri pisteen päälle nähdäksesi sääaseman nimen.

Klikkaa sitten nähdäksesi säähavainnot ja -ennusteet.

Kartan vaihtaminen: klikkaa mustalla rastilla varustettuja vihreitä pisteitä, niin voit zoomata sisään; viivalla varustettua vihreää pistettä, niin voit zoomata ulos tai vihreitä nuolia, niin pääset viereisille kartoille.


METAR-TAF: